Time;durP1;ratioP1;P1;durP2;ratioP2;P2;SDS_P1;SDS_P2;PMS_P1;PMS_P2;Temp;Humidity;BMP_temperature;BMP_pressure;BME280_temperature;BME280_humidity;BME280_pressure;Samples;Min_cycle;Max_cycle;Signal;HPM_P1;HPM_P2
2023/07/26 00:00:53;;;;;;;1.07;0.50;;;14.30;99.90;;;;;;5096492;28;20048;-49
2023/07/26 00:03:18;;;;;;;2.47;0.63;;;14.30;99.90;;;;;;5096292;28;20047;-47
2023/07/26 00:05:44;;;;;;;1.65;0.50;;;14.30;99.90;;;;;;5096653;28;20044;-48
2023/07/26 00:08:10;;;;;;;1.90;0.90;;;14.30;99.90;;;;;;5095447;28;20121;-49
2023/07/26 00:10:35;;;;;;;3.80;1.00;;;14.30;99.90;;;;;;5096481;28;20188;-49
2023/07/26 00:13:01;;;;;;;3.83;0.83;;;14.30;99.90;;;;;;5096451;28;20044;-50
2023/07/26 00:15:27;;;;;;;2.20;0.60;;;14.30;99.90;;;;;;5096901;28;20749;-51
2023/07/26 00:17:53;;;;;;;2.45;0.60;;;14.30;99.90;;;;;;5096332;28;20044;-48
2023/07/26 00:20:18;;;;;;;1.42;0.47;;;14.30;99.90;;;;;;5096334;28;20129;-49
2023/07/26 00:22:44;;;;;;;2.00;0.60;;;14.30;99.90;;;;;;5096297;28;20046;-48
2023/07/26 00:25:10;;;;;;;2.70;0.87;;;14.30;99.90;;;;;;5096215;28;20040;-49
2023/07/26 00:27:35;;;;;;;2.13;0.77;;;14.30;99.90;;;;;;5096356;28;20052;-48
2023/07/26 00:30:01;;;;;;;2.38;0.70;;;14.30;99.90;;;;;;5096050;28;20048;-50
2023/07/26 00:32:28;;;;;;;1.40;0.57;;;14.30;99.90;;;;;;5096010;28;20405;-49
2023/07/26 00:34:54;;;;;;;1.98;0.60;;;14.30;99.90;;;;;;5096033;28;20282;-49
2023/07/26 00:37:20;;;;;;;1.67;0.73;;;14.30;99.90;;;;;;5093559;28;20051;-50
2023/07/26 00:39:45;;;;;;;2.63;1.00;;;14.30;99.90;;;;;;5094820;28;20110;-49
2023/07/26 00:42:14;;;;;;;2.15;0.70;;;14.30;99.90;;;;;;5096035;28;20039;-50
2023/07/26 00:44:40;;;;;;;2.58;0.93;;;14.30;99.90;;;;;;5095776;28;20044;-48
2023/07/26 00:47:05;;;;;;;1.55;0.88;;;14.30;99.90;;;;;;5095653;28;20091;-49
2023/07/26 00:49:31;;;;;;;1.70;0.70;;;14.30;99.90;;;;;;5094850;28;20379;-49
2023/07/26 00:51:57;;;;;;;3.65;1.00;;;14.30;99.90;;;;;;5095499;28;20048;-48
2023/07/26 00:54:23;;;;;;;2.78;0.90;;;14.30;99.90;;;;;;5095691;28;20040;-49
2023/07/26 00:56:49;;;;;;;2.90;0.80;;;14.30;99.90;;;;;;5095649;28;20145;-48
2023/07/26 00:59:14;;;;;;;2.45;1.05;;;14.30;99.90;;;;;;5095517;28;20047;-48
2023/07/26 01:01:40;;;;;;;3.63;0.82;;;14.30;99.90;;;;;;5095341;28;20395;-49
2023/07/26 01:04:06;;;;;;;2.17;0.73;;;14.30;99.90;;;;;;5094195;28;20039;-49
2023/07/26 01:07:01;;;;;;;1.60;0.65;;;14.30;99.90;;;;;;5095500;28;20441;-49
2023/07/26 01:09:34;;;;;;;2.00;0.70;;;14.30;99.90;;;;;;5095319;28;20093;-49
2023/07/26 01:12:26;;;;;;;2.40;0.73;;;14.30;99.90;;;;;;5095251;28;20125;-48
2023/07/26 01:14:57;;;;;;;1.83;0.80;;;14.30;99.90;;;;;;5086652;28;20052;-49
2023/07/26 01:17:22;;;;;;;2.47;0.90;;;14.30;99.90;;;;;;5095269;28;20044;-48
2023/07/26 01:19:48;;;;;;;2.75;0.90;;;14.30;99.90;;;;;;5095179;28;20113;-49
2023/07/26 01:22:14;;;;;;;2.42;0.90;;;14.30;99.90;;;;;;5095088;28;20120;-48
2023/07/26 01:24:40;;;;;;;3.27;0.80;;;14.20;99.90;;;;;;5094968;28;20032;-49
2023/07/26 01:27:05;;;;;;;3.70;1.17;;;14.30;99.90;;;;;;5094815;28;20769;-48
2023/07/26 01:29:31;;;;;;;2.95;0.90;;;14.30;99.90;;;;;;5093885;28;20044;-49
2023/07/26 01:31:57;;;;;;;3.47;1.00;;;14.30;99.90;;;;;;5094838;28;20044;-49
2023/07/26 01:34:24;;;;;;;2.78;0.90;;;14.30;99.90;;;;;;5094810;28;20119;-47
2023/07/26 01:36:52;;;;;;;4.55;0.82;;;14.20;99.90;;;;;;5094857;28;20051;-45
2023/07/26 01:39:18;;;;;;;4.43;1.10;;;14.20;99.90;;;;;;5094619;28;20044;-45
2023/07/26 01:41:46;;;;;;;3.60;0.93;;;14.20;99.90;;;;;;5094761;28;20098;-45
2023/07/26 01:44:12;;;;;;;3.55;0.93;;;14.20;99.90;;;;;;5094672;28;20052;-46
2023/07/26 01:46:38;;;;;;;;;;;14.20;99.90;;;;;;5095127;28;20055;-46
2023/07/26 01:49:03;;;;;;;3.13;1.10;;;14.20;99.90;;;;;;5094127;28;19920;-46
2023/07/26 01:51:29;;;;;;;3.73;0.90;;;14.20;99.90;;;;;;5093097;28;20055;-46
2023/07/26 01:53:55;;;;;;;3.63;0.93;;;14.10;99.90;;;;;;5093508;28;20296;-46
2023/07/26 01:56:21;;;;;;;2.20;0.80;;;14.10;99.90;;;;;;5094587;28;20044;-45
2023/07/26 01:58:47;;;;;;;2.15;0.88;;;14.10;99.90;;;;;;5094956;28;20509;-46
2023/07/26 02:01:13;;;;;;;2.95;0.80;;;14.10;99.90;;;;;;5094339;28;20052;-46
2023/07/26 02:03:38;;;;;;;2.20;0.90;;;14.00;99.90;;;;;;5094326;28;20066;-45
2023/07/26 02:06:04;;;;;;;3.63;0.90;;;14.00;99.90;;;;;;5093154;28;20285;-47
2023/07/26 02:08:30;;;;;;;3.67;0.93;;;14.00;99.90;;;;;;5094410;28;20152;-45
2023/07/26 02:10:55;;;;;;;2.33;0.70;;;14.00;99.90;;;;;;5093294;28;20060;-46
2023/07/26 02:13:21;;;;;;;2.60;1.10;;;13.90;99.90;;;;;;5094247;28;20278;-46
2023/07/26 02:15:47;;;;;;;4.57;1.20;;;13.90;99.90;;;;;;5094127;28;20044;-45
2023/07/26 02:18:13;;;;;;;3.93;0.87;;;13.80;99.90;;;;;;5094046;28;20305;-45
2023/07/26 02:20:38;;;;;;;2.13;0.77;;;13.80;99.90;;;;;;5094116;28;20051;-45
2023/07/26 02:23:04;;;;;;;3.20;0.60;;;13.80;99.90;;;;;;5093729;28;20051;-45
2023/07/26 02:25:30;;;;;;;3.20;1.10;;;13.80;99.90;;;;;;5094101;28;20051;-46
2023/07/26 02:27:56;;;;;;;3.77;0.90;;;13.70;99.90;;;;;;5094322;28;20048;-45
2023/07/26 02:30:21;;;;;;;2.77;0.60;;;13.70;99.90;;;;;;5093177;28;20332;-45
2023/07/26 02:32:47;;;;;;;1.97;0.80;;;13.70;99.90;;;;;;5092835;28;20044;-45
2023/07/26 02:35:13;;;;;;;1.40;0.60;;;13.70;99.90;;;;;;5093773;28;20040;-46
2023/07/26 02:37:38;;;;;;;5.30;1.20;;;13.60;99.90;;;;;;5093753;28;20036;-47
2023/07/26 02:40:04;;;;;;;3.63;0.80;;;13.60;99.90;;;;;;5092984;28;20305;-46
2023/07/26 02:42:30;;;;;;;6.60;1.05;;;13.60;99.90;;;;;;5094015;28;20390;-45
2023/07/26 02:44:56;;;;;;;4.23;0.70;;;13.60;99.90;;;;;;5092527;28;20055;-45
2023/07/26 02:47:21;;;;;;;1.92;0.82;;;13.60;99.90;;;;;;5093681;28;20040;-45
2023/07/26 02:49:47;;;;;;;3.57;0.80;;;13.60;99.90;;;;;;5093632;28;20044;-45
2023/07/26 02:52:13;;;;;;;4.80;0.80;;;13.50;99.90;;;;;;5093599;28;20055;-45
2023/07/26 02:54:39;;;;;;;2.60;0.50;;;13.50;99.90;;;;;;5094004;28;20479;-45
2023/07/26 02:57:05;;;;;;;3.00;0.80;;;13.50;99.90;;;;;;5093656;28;20075;-46
2023/07/26 02:59:31;;;;;;;1.50;0.60;;;13.50;99.90;;;;;;5094425;28;20431;-45
2023/07/26 03:01:56;;;;;;;2.77;0.70;;;13.50;99.90;;;;;;5097810;28;20094;-46
2023/07/26 03:04:22;;;;;;;2.77;0.90;;;13.50;99.90;;;;;;5097734;28;20333;-46
2023/07/26 03:06:48;;;;;;;3.00;0.80;;;13.50;99.90;;;;;;5097374;28;20048;-47
2023/07/26 03:09:14;;;;;;;1.37;0.60;;;13.50;99.90;;;;;;5097888;28;20337;-45
2023/07/26 03:11:39;;;;;;;1.53;0.50;;;13.50;99.90;;;;;;5097617;28;20803;-45
2023/07/26 03:14:05;;;;;;;1.90;0.70;;;13.50;99.90;;;;;;5097962;28;20047;-45
2023/07/26 03:16:31;;;;;;;2.50;0.53;;;13.50;99.90;;;;;;5097491;28;20472;-45
2023/07/26 03:18:57;;;;;;;2.73;0.87;;;13.50;99.90;;;;;;5097653;28;20127;-45
2023/07/26 03:21:22;;;;;;;4.20;0.95;;;13.40;99.90;;;;;;5097258;28;20414;-45
2023/07/26 03:23:48;;;;;;;2.00;0.67;;;13.40;99.90;;;;;;5097371;28;20066;-45
2023/07/26 03:26:14;;;;;;;3.53;1.13;;;13.40;99.90;;;;;;5097702;28;20119;-45
2023/07/26 03:28:39;;;;;;;1.80;0.60;;;13.50;99.90;;;;;;5097498;28;20051;-45
2023/07/26 03:31:05;;;;;;;2.10;0.83;;;13.40;99.90;;;;;;5097217;28;20494;-45
2023/07/26 03:33:31;;;;;;;2.23;0.77;;;13.40;99.90;;;;;;5095880;28;20278;-45
2023/07/26 03:35:56;;;;;;;2.57;0.80;;;13.50;99.90;;;;;;5096059;28;20048;-45
2023/07/26 03:38:22;;;;;;;2.10;0.70;;;13.50;99.90;;;;;;5097174;28;20047;-45
2023/07/26 03:40:48;;;;;;;2.03;0.63;;;13.50;99.90;;;;;;5095935;28;20052;-45
2023/07/26 03:43:13;;;;;;;4.63;1.23;;;13.50;99.90;;;;;;5097123;28;20044;-45
2023/07/26 03:45:39;;;;;;;2.87;0.87;;;13.50;99.90;;;;;;5096643;28;20451;-45
2023/07/26 03:48:05;;;;;;;3.00;0.93;;;13.50;99.90;;;;;;5096792;28;20487;-46
2023/07/26 03:50:32;;;;;;;2.73;1.03;;;13.50;99.90;;;;;;5096592;28;20044;-46
2023/07/26 03:52:58;;;;;;;3.13;1.08;;;13.50;99.90;;;;;;5096609;28;20807;-47
2023/07/26 03:55:23;;;;;;;4.33;1.03;;;13.50;99.90;;;;;;5096751;28;20075;-47
2023/07/26 03:57:49;;;;;;;2.70;1.00;;;13.50;99.90;;;;;;5096790;28;20501;-47
2023/07/26 04:00:15;;;;;;;2.40;0.70;;;13.50;99.90;;;;;;5095606;28;20040;-49
2023/07/26 04:02:40;;;;;;;2.75;0.80;;;13.50;99.90;;;;;;5096629;28;20047;-47
2023/07/26 04:05:06;;;;;;;2.67;0.70;;;13.50;99.90;;;;;;5096599;28;20387;-47
2023/07/26 04:07:36;;;;;;;3.75;1.20;;;13.60;99.90;;;;;;5096513;28;20403;-46
2023/07/26 04:10:02;;;;;;;2.90;0.85;;;13.50;99.90;;;;;;5096931;28;20044;-48
2023/07/26 04:12:28;;;;;;;1.88;0.70;;;13.60;99.90;;;;;;5096287;28;20052;-48
2023/07/26 04:14:54;;;;;;;4.13;1.10;;;13.50;99.90;;;;;;5096403;28;20036;-48
2023/07/26 04:17:19;;;;;;;3.90;0.70;;;13.60;99.90;;;;;;5096387;28;20044;-48
2023/07/26 04:19:45;;;;;;;2.83;0.70;;;13.50;99.90;;;;;;5096200;28;20505;-48
2023/07/26 04:22:11;;;;;;;2.17;0.80;;;13.50;99.90;;;;;;5096407;28;20521;-47
2023/07/26 04:24:41;;;;;;;2.43;0.73;;;13.60;99.90;;;;;;5096206;28;20040;-48
2023/07/26 04:27:07;;;;;;;2.85;0.88;;;13.50;99.90;;;;;;5096300;28;20182;-47
2023/07/26 04:29:33;;;;;;;3.70;1.27;;;13.50;99.90;;;;;;5096072;28;20085;-47
2023/07/26 04:31:58;;;;;;;3.37;1.00;;;13.50;99.90;;;;;;5095220;28;20048;-47
2023/07/26 04:34:24;;;;;;;2.73;1.00;;;13.50;99.90;;;;;;5095823;28;20266;-47
2023/07/26 04:36:50;;;;;;;2.77;1.00;;;13.50;99.90;;;;;;5096636;28;20050;-47
2023/07/26 04:39:15;;;;;;;3.63;1.00;;;13.50;99.90;;;;;;5096291;28;20048;-47
2023/07/26 04:41:41;;;;;;;2.93;0.90;;;13.50;99.90;;;;;;5096205;28;20398;-47
2023/07/26 04:44:07;;;;;;;2.83;1.10;;;13.50;99.90;;;;;;5095910;28;20040;-48
2023/07/26 04:46:32;;;;;;;3.28;0.90;;;13.50;99.90;;;;;;5095703;28;20052;-48
2023/07/26 04:48:58;;;;;;;2.13;0.70;;;13.50;99.90;;;;;;5094677;28;20051;-47
2023/07/26 04:51:24;;;;;;;3.10;0.97;;;13.50;99.90;;;;;;5095751;28;20048;-47
2023/07/26 04:53:50;;;;;;;3.87;0.97;;;13.50;99.90;;;;;;5094780;28;20575;-47
2023/07/26 04:56:16;;;;;;;3.35;0.90;;;13.50;99.90;;;;;;5095676;28;20282;-47
2023/07/26 04:58:43;;;;;;;3.42;1.00;;;13.50;99.90;;;;;;5095444;28;20059;-47
2023/07/26 05:01:08;;;;;;;2.05;0.80;;;13.50;99.90;;;;;;5095365;28;20527;-47
2023/07/26 05:03:34;;;;;;;3.83;1.30;;;13.50;99.90;;;;;;5077324;28;20136;-47
2023/07/26 05:06:00;;;;;;;4.65;1.00;;;13.50;99.90;;;;;;5095491;28;20054;-48
2023/07/26 05:08:26;;;;;;;3.90;1.20;;;13.50;99.90;;;;;;5095540;28;20413;-46
2023/07/26 05:10:52;;;;;;;3.70;1.05;;;13.50;99.90;;;;;;5095479;28;20055;-46
2023/07/26 05:13:19;;;;;;;3.97;1.23;;;13.60;99.90;;;;;;5077395;28;20052;-46
2023/07/26 05:15:44;;;;;;;4.03;1.08;;;13.60;99.90;;;;;;5094127;28;20403;-46
2023/07/26 05:18:10;;;;;;;4.22;1.38;;;13.60;99.90;;;;;;5093953;28;20127;-46
2023/07/26 05:20:37;;;;;;;4.10;1.33;;;13.60;99.90;;;;;;5095214;28;20449;-46
2023/07/26 05:23:02;;;;;;;4.47;1.40;;;13.70;99.90;;;;;;5094430;28;20366;-46
2023/07/26 05:25:28;;;;;;;3.23;1.00;;;13.80;99.90;;;;;;5095193;28;20126;-47
2023/07/26 05:27:55;;;;;;;3.20;1.23;;;13.90;99.90;;;;;;5095069;28;20047;-47
2023/07/26 05:30:20;;;;;;;4.40;0.85;;;14.00;99.90;;;;;;5095001;28;20131;-47
2023/07/26 05:32:46;;;;;;;2.65;1.10;;;14.10;99.90;;;;;;5094927;28;20127;-46
2023/07/26 05:35:12;;;;;;;3.57;1.23;;;14.10;99.90;;;;;;5094920;28;20391;-47
2023/07/26 05:37:38;;;;;;;4.45;1.00;;;14.20;99.90;;;;;;5093679;28;20044;-46
2023/07/26 05:40:05;;;;;;;3.42;1.20;;;14.20;99.90;;;;;;5094758;28;20109;-46
2023/07/26 05:42:35;;;;;;;3.00;1.00;;;14.30;99.90;;;;;;5093587;28;20052;-46
2023/07/26 05:45:01;;;;;;;3.25;1.00;;;14.30;99.90;;;;;;5094667;28;20093;-47
2023/07/26 05:47:28;;;;;;;2.38;1.00;;;14.30;99.90;;;;;;5094363;28;20047;-47
2023/07/26 05:49:53;;;;;;;;;;;14.30;99.90;;;;;;5095036;28;20040;-47
2023/07/26 05:52:19;;;;;;;2.72;1.00;;;14.30;99.90;;;;;;5094598;28;19927;-46
2023/07/26 05:54:45;;;;;;;3.65;1.00;;;14.30;99.90;;;;;;5093774;28;20052;-47
2023/07/26 05:57:10;;;;;;;2.37;0.80;;;14.30;99.90;;;;;;5094495;28;20040;-47
2023/07/26 05:59:36;;;;;;;3.87;0.80;;;14.30;99.90;;;;;;5094258;28;20779;-46
2023/07/26 06:02:02;;;;;;;2.33;0.80;;;14.30;99.90;;;;;;5094372;28;20620;-45
2023/07/26 06:04:28;;;;;;;2.17;0.82;;;14.30;99.90;;;;;;5094330;28;20052;-45
2023/07/26 06:06:55;;;;;;;3.75;0.80;;;14.30;99.90;;;;;;5094169;28;20040;-46
2023/07/26 06:09:22;;;;;;;2.28;0.80;;;14.20;99.90;;;;;;5094331;28;20593;-45
2023/07/26 06:11:47;;;;;;;2.35;0.80;;;14.20;99.90;;;;;;5094280;28;20093;-45
2023/07/26 06:14:13;;;;;;;4.10;1.08;;;14.20;99.90;;;;;;5094299;28;20043;-47
2023/07/26 06:16:39;;;;;;;3.85;1.00;;;14.20;99.90;;;;;;5094037;28;20048;-45
2023/07/26 06:19:05;;;;;;;3.40;1.05;;;14.20;99.90;;;;;;5094208;28;20036;-47
2023/07/26 06:21:30;;;;;;;2.80;0.87;;;14.20;99.90;;;;;;5094144;28;20044;-47
2023/07/26 06:23:56;;;;;;;4.40;0.93;;;14.10;99.90;;;;;;5092867;28;20044;-46
2023/07/26 06:26:22;;;;;;;3.20;0.90;;;14.10;99.90;;;;;;5092816;28;20044;-46
2023/07/26 06:28:48;;;;;;;2.42;0.60;;;14.10;99.90;;;;;;5094026;28;20040;-47
2023/07/26 06:31:13;;;;;;;1.73;0.70;;;14.10;99.90;;;;;;5093783;28;20058;-46
2023/07/26 06:33:39;;;;;;;3.23;0.90;;;14.10;99.90;;;;;;5092294;28;20044;-47
2023/07/26 06:36:06;;;;;;;2.05;0.65;;;14.10;99.90;;;;;;5075461;28;20075;-47
2023/07/26 06:38:32;;;;;;;1.77;0.70;;;14.00;99.90;;;;;;5092989;28;20387;-47
2023/07/26 06:40:58;;;;;;;2.50;0.57;;;14.10;99.90;;;;;;5092862;28;20040;-47
2023/07/26 06:43:24;;;;;;;3.70;0.90;;;14.10;99.90;;;;;;5093744;28;20051;-47
2023/07/26 06:45:52;;;;;;;2.80;1.00;;;14.20;99.90;;;;;;5092362;28;20040;-46
2023/07/26 06:48:18;;;;;;;2.42;0.80;;;14.30;99.90;;;;;;5093804;28;20051;-46
2023/07/26 06:50:44;;;;;;;1.55;0.50;;;14.50;99.90;;;;;;5093797;28;20051;-47
2023/07/26 06:53:10;;;;;;;2.22;0.85;;;14.60;99.90;;;;;;5093664;28;20050;-48
2023/07/26 06:55:36;;;;;;;3.22;0.80;;;14.80;99.90;;;;;;5093649;28;20394;-47
2023/07/26 06:58:02;;;;;;;2.05;0.60;;;14.80;99.90;;;;;;5092425;28;20054;-47
2023/07/26 07:00:28;;;;;;;2.08;0.70;;;14.80;99.90;;;;;;5093644;28;20055;-47
2023/07/26 07:03:01;;;;;;;2.70;0.75;;;14.80;99.90;;;;;;5093770;28;20052;-48
2023/07/26 07:05:33;;;;;;;2.42;0.73;;;14.80;99.90;;;;;;5093593;28;20093;-46
2023/07/26 07:07:59;;;;;;;1.33;0.50;;;14.80;99.90;;;;;;5093582;28;20456;-47
2023/07/26 07:10:25;;;;;;;0.95;0.40;;;14.70;99.90;;;;;;5093516;28;20052;-47
2023/07/26 07:12:50;;;;;;;1.60;0.53;;;14.80;99.90;;;;;;5092190;28;20083;-47
2023/07/26 07:15:16;;;;;;;2.50;0.60;;;14.90;99.90;;;;;;5093699;28;20046;-46
2023/07/26 07:17:42;;;;;;;1.50;0.57;;;15.30;99.90;;;;;;5093711;28;20048;-46
2023/07/26 07:20:08;;;;;;;1.23;0.50;;;16.10;99.90;;;;;;5093441;28;20082;-48
2023/07/26 07:22:37;;;;;;;2.03;0.60;;;16.90;99.90;;;;;;5092400;28;20079;-46
2023/07/26 07:25:03;;;;;;;1.80;0.60;;;17.40;99.90;;;;;;5093263;28;20047;-46
2023/07/26 07:27:29;;;;;;;2.47;1.15;;;17.40;99.90;;;;;;5093355;28;20491;-45
2023/07/26 07:29:55;;;;;;;2.43;0.60;;;17.20;99.90;;;;;;5093816;28;20090;-46
2023/07/26 07:32:21;;;;;;;2.22;0.73;;;17.00;99.90;;;;;;5093342;28;20140;-46
2023/07/26 07:34:46;;;;;;;1.98;0.50;;;16.80;99.90;;;;;;5093523;28;20051;-45
2023/07/26 07:37:12;;;;;;;2.03;0.47;;;16.60;99.90;;;;;;5093228;28;20122;-46
2023/07/26 07:39:38;;;;;;;1.65;0.60;;;16.50;99.90;;;;;;5093237;28;20043;-45
2023/07/26 07:42:04;;;;;;;2.65;0.60;;;16.40;99.90;;;;;;5093192;28;20040;-46
2023/07/26 07:44:30;;;;;;;2.45;0.55;;;16.30;99.90;;;;;;5093268;28;20036;-46
2023/07/26 07:46:56;;;;;;;3.25;0.60;;;16.20;99.90;;;;;;5096099;28;20101;-45
2023/07/26 07:49:23;;;;;;;1.80;0.70;;;16.10;99.90;;;;;;5097006;28;20044;-45
2023/07/26 07:51:48;;;;;;;1.48;0.43;;;16.10;99.90;;;;;;5096963;28;20398;-45
2023/07/26 07:54:14;;;;;;;0.90;0.30;;;16.10;99.90;;;;;;5096694;28;20124;-46
2023/07/26 07:56:40;;;;;;;1.48;0.40;;;16.00;99.90;;;;;;5096520;28;20048;-47
2023/07/26 07:59:06;;;;;;;2.58;0.63;;;15.90;99.90;;;;;;5096844;28;20044;-46
2023/07/26 08:01:32;;;;;;;1.70;0.70;;;15.90;99.90;;;;;;5096757;28;20110;-45
2023/07/26 08:04:02;;;;;;;1.83;0.43;;;15.90;99.90;;;;;;5096424;28;20127;-45
2023/07/26 08:06:29;;;;;;;1.85;0.60;;;15.90;99.90;;;;;;5096538;28;20135;-45
2023/07/26 08:08:55;;;;;;;2.28;0.60;;;15.90;99.90;;;;;;5096162;28;20059;-45
2023/07/26 08:11:21;;;;;;;2.40;0.60;;;15.80;99.90;;;;;;5096286;28;20040;-47
2023/07/26 08:13:47;;;;;;;1.30;0.50;;;15.90;99.90;;;;;;5096487;28;20122;-45
2023/07/26 08:16:13;;;;;;;1.02;0.40;;;15.90;99.90;;;;;;5096469;28;20083;-45
2023/07/26 08:18:38;;;;;;;0.98;0.40;;;15.90;99.90;;;;;;5096416;28;20040;-45
2023/07/26 08:21:05;;;;;;;3.05;0.50;;;15.90;99.90;;;;;;5096180;28;20509;-45
2023/07/26 08:23:31;;;;;;;1.73;0.47;;;15.90;99.90;;;;;;5095234;28;20070;-45
2023/07/26 08:26:03;;;;;;;0.80;0.40;;;15.90;99.90;;;;;;5095994;28;20055;-45
2023/07/26 08:28:28;;;;;;;1.13;0.30;;;15.90;99.90;;;;;;5096689;28;20426;-45
2023/07/26 08:30:54;;;;;;;1.25;0.40;;;15.90;99.90;;;;;;5096511;28;20048;-45
2023/07/26 08:33:20;;;;;;;1.07;0.40;;;15.90;99.90;;;;;;5095241;28;20109;-45
2023/07/26 08:35:46;;;;;;;0.70;0.40;;;15.90;99.90;;;;;;5095135;28;20291;-45
2023/07/26 08:38:11;;;;;;;1.57;0.50;;;15.90;99.90;;;;;;5096047;28;20441;-45
2023/07/26 08:40:46;;;;;;;1.77;0.47;;;16.00;99.90;;;;;;5096407;28;20279;-45
2023/07/26 08:43:13;;;;;;;2.88;0.57;;;16.10;99.90;;;;;;5096039;28;20274;-45
2023/07/26 08:45:40;;;;;;;1.67;0.70;;;16.10;99.90;;;;;;5095864;28;20044;-45
2023/07/26 08:48:08;;;;;;;1.00;0.40;;;16.10;99.90;;;;;;5095753;28;20048;-45
2023/07/26 08:50:38;;;;;;;2.55;0.60;;;16.20;99.90;;;;;;5095707;28;20380;-46
2023/07/26 08:53:07;;;;;;;2.83;0.47;;;16.20;99.90;;;;;;5095482;28;20040;-45
2023/07/26 08:55:33;;;;;;;2.25;0.68;;;16.30;99.90;;;;;;5095696;28;20086;-45
2023/07/26 08:58:00;;;;;;;;;;;16.30;99.90;;;;;;5095024;28;20131;-45
2023/07/26 09:00:29;;;;;;;1.73;0.52;;;16.30;99.90;;;;;;5095606;28;20308;-46
2023/07/26 09:02:57;;;;;;;3.00;0.80;;;16.40;99.90;;;;;;5095456;28;20091;-45
2023/07/26 09:05:23;;;;;;;1.98;0.60;;;16.40;99.90;;;;;;5094031;28;20052;-45
2023/07/26 09:07:51;;;;;;;2.15;0.70;;;16.50;99.90;;;;;;5093937;28;20063;-45
2023/07/26 09:10:28;;;;;;;1.42;0.55;;;16.40;99.90;;;;;;5095413;28;20063;-45
2023/07/26 09:13:14;;;;;;;1.60;0.70;;;16.40;99.90;;;;;;5095459;28;20487;-46
2023/07/26 09:15:42;;;;;;;2.42;0.73;;;16.50;99.90;;;;;;5095302;28;20040;-47
2023/07/26 09:18:12;;;;;;;1.48;0.52;;;16.50;99.90;;;;;;5095007;28;20055;-45
2023/07/26 09:20:38;;;;;;;2.58;0.90;;;16.50;99.90;;;;;;5095372;28;20261;-46
2023/07/26 09:23:05;;;;;;;3.38;0.70;;;16.50;99.90;;;;;;5095473;28;20148;-46
2023/07/26 09:25:45;;;;;;;4.05;1.15;;;16.50;99.90;;;;;;5095008;28;20043;-46
2023/07/26 09:28:13;;;;;;;2.50;1.10;;;16.60;99.90;;;;;;5095036;28;20051;-45
2023/07/26 09:30:41;;;;;;;3.05;0.85;;;16.60;99.90;;;;;;5094920;28;20112;-46
2023/07/26 09:33:08;;;;;;;2.28;0.85;;;16.70;99.90;;;;;;5095039;28;20052;-46
2023/07/26 09:35:54;;;;;;;2.15;0.90;;;16.70;99.90;;;;;;5094968;28;20044;-45
2023/07/26 09:38:25;;;;;;;2.67;0.82;;;16.70;99.90;;;;;;5094361;28;20059;-46
2023/07/26 09:40:50;;;;;;;2.30;0.77;;;16.70;99.90;;;;;;5094544;28;20040;-46
2023/07/26 09:43:30;;;;;;;3.08;0.93;;;16.80;99.90;;;;;;5093342;28;20055;-47
2023/07/26 09:46:02;;;;;;;2.33;0.85;;;16.80;99.90;;;;;;5094417;28;20040;-47
2023/07/26 09:48:28;;;;;;;2.47;1.08;;;16.90;99.90;;;;;;5094467;28;20143;-46
2023/07/26 09:50:55;;;;;;;2.88;1.10;;;17.00;99.90;;;;;;5094656;28;20122;-48
2023/07/26 09:53:24;;;;;;;2.20;0.90;;;17.00;99.90;;;;;;5094405;28;20052;-47
2023/07/26 09:55:50;;;;;;;2.20;0.88;;;17.00;99.90;;;;;;5094451;28;20106;-49
2023/07/26 09:58:17;;;;;;;2.17;0.70;;;17.00;99.90;;;;;;5094604;28;20063;-48
2023/07/26 10:00:46;;;;;;;3.30;1.25;;;17.10;99.90;;;;;;5094706;28;20411;-49
2023/07/26 10:03:13;;;;;;;4.22;1.00;;;17.10;99.90;;;;;;5094197;28;20453;-50
2023/07/26 10:05:46;;;;;;;2.65;0.90;;;17.20;99.90;;;;;;5094316;28;20051;-47
2023/07/26 10:08:15;;;;;;;3.55;1.08;;;17.30;99.90;;;;;;5094203;28;20062;-48
2023/07/26 10:10:42;;;;;;;2.35;0.90;;;17.40;99.90;;;;;;5093155;28;20402;-49
2023/07/26 10:13:10;;;;;;;3.78;1.30;;;17.50;99.90;;;;;;5094283;28;20052;-47
2023/07/26 10:15:38;;;;;;;2.78;1.08;;;17.60;99.90;;;;;;5094175;28;20048;-55
2023/07/26 10:18:04;;;;;;;2.35;0.90;;;17.70;99.90;;;;;;5094150;28;20112;-55
2023/07/26 10:20:31;;;;;;;2.08;0.65;;;17.80;99.90;;;;;;5093896;28;20052;-54
2023/07/26 10:23:02;;;;;;;2.35;0.80;;;17.90;99.90;;;;;;5094053;28;20224;-53
2023/07/26 10:25:29;;;;;;;2.72;0.63;;;17.90;99.90;;;;;;5094378;28;20051;-47
2023/07/26 10:27:56;;;;;;;2.15;0.90;;;17.70;99.90;;;;;;5093886;28;20609;-46
2023/07/26 10:30:21;;;;;;;1.80;0.57;;;17.60;99.90;;;;;;5094144;28;20415;-45
2023/07/26 10:32:48;;;;;;;2.33;0.80;;;17.40;99.90;;;;;;5075826;28;20039;-46
2023/07/26 10:35:34;;;;;;;2.97;0.82;;;17.20;99.90;;;;;;5093804;28;20098;-47
2023/07/26 10:38:03;;;;;;;2.53;0.80;;;17.00;99.90;;;;;;5094000;28;20059;-47
2023/07/26 10:40:34;;;;;;;2.17;0.73;;;16.80;99.90;;;;;;5093763;28;20505;-47
2023/07/26 10:43:17;;;;;;;1.98;0.65;;;16.60;99.90;;;;;;5093756;28;20399;-46
2023/07/26 10:45:44;;;;;;;3.13;1.00;;;16.60;99.90;;;;;;5092553;28;20067;-47
2023/07/26 10:48:32;;;;;;;2.60;0.82;;;16.40;99.90;;;;;;5092794;28;20044;-46
2023/07/26 10:50:58;;;;;;;2.28;0.77;;;16.40;99.90;;;;;;5094006;28;20047;-47
2023/07/26 10:53:38;;;;;;;3.50;0.95;;;16.40;99.90;;;;;;5094026;28;20048;-47
2023/07/26 10:56:11;;;;;;;3.33;1.27;;;16.40;99.90;;;;;;5093623;28;20044;-46
2023/07/26 10:58:49;;;;;;;5.95;1.00;;;16.40;99.90;;;;;;5093748;28;20048;-46
2023/07/26 11:01:38;;;;;;;5.28;1.98;;;16.40;99.90;;;;;;5093645;28;20512;-49
2023/07/26 11:04:15;;;;;;;2.75;0.90;;;16.30;99.90;;;;;;5093480;28;20368;-45
2023/07/26 11:06:52;;;;;;;3.28;1.00;;;16.10;99.90;;;;;;5093512;28;20480;-45
2023/07/26 11:09:26;;;;;;;2.72;1.00;;;16.00;99.90;;;;;;5094103;28;20048;-47
2023/07/26 11:11:59;;;;;;;2.83;1.00;;;15.90;99.90;;;;;;5093658;28;20048;-47
2023/07/26 11:14:26;;;;;;;2.08;0.80;;;15.90;99.90;;;;;;5093439;28;20061;-48
2023/07/26 11:16:55;;;;;;;2.00;0.65;;;15.80;99.90;;;;;;5093300;28;20051;-48
2023/07/26 11:19:21;;;;;;;2.00;0.52;;;15.70;99.90;;;;;;5093529;28;20040;-47
2023/07/26 11:21:47;;;;;;;1.73;0.50;;;15.60;99.90;;;;;;5096251;28;20051;-47
2023/07/26 11:24:12;;;;;;;1.67;0.50;;;15.50;99.90;;;;;;5096408;28;20044;-47
2023/07/26 11:26:46;;;;;;;2.55;0.65;;;15.40;99.90;;;;;;5097484;28;20050;-46
2023/07/26 11:29:13;;;;;;;1.38;0.55;;;15.40;99.90;;;;;;5097277;28;20079;-46
2023/07/26 11:31:39;;;;;;;1.48;0.65;;;15.40;99.90;;;;;;5097310;28;20048;-47
2023/07/26 11:34:15;;;;;;;1.60;0.55;;;15.40;99.90;;;;;;5097345;28;20036;-46
2023/07/26 11:36:41;;;;;;;2.55;0.65;;;15.50;99.90;;;;;;5096279;28;20087;-46
2023/07/26 11:39:18;;;;;;;1.42;0.50;;;15.50;99.90;;;;;;5097238;28;20116;-47
2023/07/26 11:41:43;;;;;;;1.50;0.50;;;15.40;99.90;;;;;;5096096;28;20048;-47
2023/07/26 11:44:10;;;;;;;2.42;0.57;;;15.40;99.90;;;;;;5095679;28;20052;-47
2023/07/26 11:46:35;;;;;;;1.67;0.50;;;15.40;99.90;;;;;;5097036;28;20040;-47
2023/07/26 11:49:01;;;;;;;2.42;0.50;;;15.50;99.90;;;;;;5096781;28;20368;-47
2023/07/26 11:51:31;;;;;;;2.28;0.40;;;15.60;99.90;;;;;;5096901;28;20048;-48
2023/07/26 11:53:57;;;;;;;0.95;0.30;;;15.70;99.90;;;;;;5096914;28;20043;-47
2023/07/26 11:56:30;;;;;;;1.10;0.43;;;15.90;99.90;;;;;;5096745;28;20051;-48
2023/07/26 11:58:58;;;;;;;2.15;0.47;;;16.10;99.90;;;;;;5096808;28;20055;-47
2023/07/26 12:01:25;;;;;;;1.90;0.50;;;16.30;99.90;;;;;;5096734;28;20101;-48
2023/07/26 12:03:53;;;;;;;2.20;0.93;;;16.50;99.90;;;;;;5096631;28;20044;-48
2023/07/26 12:06:20;;;;;;;2.20;0.60;;;16.70;99.90;;;;;;5096615;28;20044;-48
2023/07/26 12:08:47;;;;;;;1.58;0.60;;;16.80;99.90;;;;;;5096342;28;20067;-58
2023/07/26 12:11:18;;;;;;;;;;;16.90;99.90;;;;;;5096852;28;20059;-58
2023/07/26 12:13:45;;;;;;;2.38;0.50;;;17.10;99.90;;;;;;5096360;28;20428;-57
2023/07/26 12:16:10;;;;;;;;;;;17.30;99.90;;;;;;5096798;28;20051;-58
2023/07/26 12:18:51;;;;;;;1.77;0.40;;;17.50;99.90;;;;;;5096413;28;20367;-58
2023/07/26 12:21:23;;;;;;;1.58;0.50;;;17.60;99.90;;;;;;5096228;28;20044;-58
2023/07/26 12:23:54;;;;;;;1.48;0.40;;;17.90;99.90;;;;;;5095715;28;20047;-58
2023/07/26 12:26:22;;;;;;;1.10;0.40;;;18.10;99.90;;;;;;5096181;28;20048;-59
2023/07/26 12:28:48;;;;;;;1.85;0.50;;;18.20;99.90;;;;;;5096093;28;20368;-58
2023/07/26 12:31:19;;;;;;;1.17;0.40;;;18.20;99.90;;;;;;5096168;28;20058;-59
2023/07/26 12:34:00;;;;;;;1.15;0.30;;;18.10;99.90;;;;;;5096137;28;20055;-58
2023/07/26 12:36:47;;;;;;;0.73;0.40;;;18.00;99.90;;;;;;5096396;28;20048;-58
2023/07/26 12:39:15;;;;;;;0.95;0.40;;;17.90;99.90;;;;;;5096208;28;20497;-58
2023/07/26 12:41:43;;;;;;;1.10;0.35;;;17.80;99.90;;;;;;5094748;28;20127;-58
2023/07/26 12:44:09;;;;;;;1.35;0.50;;;17.70;99.90;;;;;;5094873;28;20136;-58
2023/07/26 12:46:39;;;;;;;1.38;0.60;;;17.60;99.90;;;;;;5095851;28;20499;-58
2023/07/26 12:49:07;;;;;;;1.63;0.60;;;17.60;99.90;;;;;;5095850;28;20054;-60